SWA1193 KATL-KBNA
Flight info
| Callsign | SWA1193 |
|---|---|
| Flight time | 0h 44m |
| Altitude | 28000 |
| Route | PENCL2 PENCL JAGIR SWFFT3 |
| Aircraft | B738/M-SADE2E3GIJ4RWZ/LB1D1 |
Departure
| Time | 2026-05-05 22:57 |
|---|---|
| Airport | Hartsfield Jackson Atlanta International Airport (KATL) |
Arrival
| Time | 2026-05-05 23:42 |
|---|---|
| Airport | Nashville International Airport (KBNA) |
| Time | Latitude | Longitude | Altitude | Speed | Heading |
|---|---|---|---|---|---|
| 2026-05-05 22:34 | 33.63904 | -84.43204 | 1005 ft | 0 kts | 269° |
| 2026-05-05 22:48 | 33.63905 | -84.43178 | 999 ft | 4 kts | 275° |
| 2026-05-05 22:48 | 33.63898 | -84.43148 | 1005 ft | 4 kts | 307° |
| 2026-05-05 22:49 | 33.63879 | -84.43131 | 1005 ft | 4 kts | 354° |
| 2026-05-05 22:49 | 33.63869 | -84.43130 | 1005 ft | 0 kts | 0° |
| 2026-05-05 22:51 | 33.63872 | -84.43130 | 1005 ft | 3 kts | 0° |
| 2026-05-05 22:51 | 33.63953 | -84.43130 | 1005 ft | 20 kts | 0° |
| 2026-05-05 22:51 | 33.64141 | -84.43131 | 1005 ft | 34 kts | 360° |
| 2026-05-05 22:51 | 33.64405 | -84.43111 | 1006 ft | 36 kts | 37° |
| 2026-05-05 22:52 | 33.64460 | -84.42835 | 1005 ft | 34 kts | 90° |
| 2026-05-05 22:52 | 33.64469 | -84.42558 | 1005 ft | 32 kts | 90° |
| 2026-05-05 22:52 | 33.64470 | -84.42298 | 1005 ft | 30 kts | 86° |
| 2026-05-05 22:52 | 33.64543 | -84.42075 | 1005 ft | 28 kts | 87° |
| 2026-05-05 22:53 | 33.64541 | -84.41847 | 1005 ft | 26 kts | 89° |
| 2026-05-05 22:53 | 33.64542 | -84.41632 | 1006 ft | 25 kts | 90° |
| 2026-05-05 22:53 | 33.64543 | -84.41430 | 1006 ft | 23 kts | 90° |
| 2026-05-05 22:53 | 33.64543 | -84.41240 | 1006 ft | 22 kts | 90° |
| 2026-05-05 22:54 | 33.64543 | -84.41051 | 1006 ft | 23 kts | 90° |
| 2026-05-05 22:54 | 33.64544 | -84.40873 | 1005 ft | 20 kts | 90° |
| 2026-05-05 22:54 | 33.64570 | -84.40752 | 1005 ft | 17 kts | 81° |
| 2026-05-05 22:54 | 33.64575 | -84.40596 | 1004 ft | 21 kts | 69° |
| 2026-05-05 22:55 | 33.64591 | -84.40574 | 1004 ft | 0 kts | 21° |
| 2026-05-05 22:55 | 33.64594 | -84.40573 | 1004 ft | 3 kts | 19° |
| 2026-05-05 22:55 | 33.64661 | -84.40567 | 1003 ft | 8 kts | 347° |
| 2026-05-05 22:55 | 33.64680 | -84.40625 | 1003 ft | 0 kts | 269° |
| 2026-05-05 22:57 | 33.64680 | -84.40854 | 1005 ft | 65 kts | 269° |
| 2026-05-05 22:57 | 33.64678 | -84.41692 | 1006 ft | 134 kts | 270° |
| 2026-05-05 22:57 | 33.64680 | -84.42998 | 1261 ft | 170 kts | 270° |
| 2026-05-05 22:57 | 33.64732 | -84.44506 | 1889 ft | 190 kts | 275° |
| 2026-05-05 22:58 | 33.65153 | -84.46062 | 2698 ft | 199 kts | 290° |
| 2026-05-05 22:58 | 33.65720 | -84.47654 | 3087 ft | 219 kts | 289° |
| 2026-05-05 22:58 | 33.66323 | -84.49412 | 3273 ft | 242 kts | 289° |
| 2026-05-05 22:58 | 33.66998 | -84.51397 | 3620 ft | 262 kts | 288° |
| 2026-05-05 22:59 | 33.67695 | -84.53446 | 4367 ft | 266 kts | 288° |
| 2026-05-05 22:59 | 33.68398 | -84.55502 | 5213 ft | 268 kts | 290° |
| 2026-05-05 22:59 | 33.69539 | -84.57305 | 5966 ft | 280 kts | 320° |
| 2026-05-05 22:59 | 33.71324 | -84.58183 | 6774 ft | 287 kts | 351° |
| 2026-05-05 23:00 | 33.75362 | -84.58186 | 8388 ft | 294 kts | 360° |
| 2026-05-05 23:00 | 33.77414 | -84.58134 | 9254 ft | 296 kts | 359° |
| 2026-05-05 23:00 | 33.79483 | -84.58096 | 10103 ft | 299 kts | 359° |
| 2026-05-05 23:01 | 33.81570 | -84.58068 | 10900 ft | 302 kts | 358° |
| 2026-05-05 23:01 | 33.83741 | -84.58083 | 11205 ft | 325 kts | 356° |
| 2026-05-05 23:01 | 33.86063 | -84.58450 | 11353 ft | 348 kts | 345° |
| 2026-05-05 23:01 | 33.88476 | -84.59211 | 11547 ft | 369 kts | 342° |
| 2026-05-05 23:02 | 33.90996 | -84.60057 | 11991 ft | 380 kts | 342° |
| 2026-05-05 23:02 | 33.93554 | -84.60917 | 12736 ft | 383 kts | 342° |
| 2026-05-05 23:02 | 33.96127 | -84.61771 | 13543 ft | 384 kts | 342° |
| 2026-05-05 23:02 | 33.98716 | -84.62621 | 14255 ft | 388 kts | 342° |
| 2026-05-05 23:03 | 34.01328 | -84.63471 | 14973 ft | 390 kts | 342° |
| 2026-05-05 23:03 | 34.03956 | -84.64323 | 15722 ft | 391 kts | 342° |
| 2026-05-05 23:03 | 34.06593 | -84.65175 | 16451 ft | 394 kts | 342° |
| 2026-05-05 23:03 | 34.09247 | -84.66034 | 17160 ft | 396 kts | 342° |
| 2026-05-05 23:04 | 34.11922 | -84.66899 | 17852 ft | 400 kts | 342° |
| 2026-05-05 23:04 | 34.14625 | -84.67774 | 18459 ft | 404 kts | 342° |
| 2026-05-05 23:04 | 34.17345 | -84.68655 | 19065 ft | 406 kts | 341° |
| 2026-05-05 23:04 | 34.20081 | -84.69541 | 19694 ft | 407 kts | 341° |
| 2026-05-05 23:05 | 34.22826 | -84.70431 | 20309 ft | 409 kts | 341° |
| 2026-05-05 23:05 | 34.25527 | -84.71500 | 20877 ft | 409 kts | 334° |
| 2026-05-05 23:05 | 34.28042 | -84.73083 | 21448 ft | 407 kts | 325° |
| 2026-05-05 23:05 | 34.30434 | -84.74919 | 22067 ft | 408 kts | 324° |
| 2026-05-05 23:06 | 34.32832 | -84.76766 | 22603 ft | 410 kts | 324° |
| 2026-05-05 23:06 | 34.35248 | -84.78619 | 23090 ft | 413 kts | 324° |
| 2026-05-05 23:06 | 34.37689 | -84.80480 | 23611 ft | 416 kts | 324° |
| 2026-05-05 23:06 | 34.40141 | -84.82342 | 24038 ft | 417 kts | 324° |
| 2026-05-05 23:07 | 34.42605 | -84.84207 | 24504 ft | 417 kts | 324° |
| 2026-05-05 23:07 | 34.45067 | -84.86069 | 24972 ft | 418 kts | 324° |
| 2026-05-05 23:07 | 34.47533 | -84.87935 | 25430 ft | 418 kts | 324° |
| 2026-05-05 23:07 | 34.50004 | -84.89806 | 25843 ft | 420 kts | 324° |
| 2026-05-05 23:08 | 34.52448 | -84.91660 | 26252 ft | 420 kts | 324° |
| 2026-05-05 23:08 | 34.54933 | -84.93545 | 26634 ft | 422 kts | 324° |
| 2026-05-05 23:08 | 34.57416 | -84.95431 | 27076 ft | 421 kts | 324° |
| 2026-05-05 23:08 | 34.59892 | -84.97311 | 27640 ft | 418 kts | 324° |
| 2026-05-05 23:09 | 34.62344 | -84.99175 | 28093 ft | 417 kts | 324° |
| 2026-05-05 23:09 | 34.64814 | -85.01056 | 28087 ft | 420 kts | 324° |
| 2026-05-05 23:09 | 34.69717 | -85.04814 | 28076 ft | 412 kts | 323° |
| 2026-05-05 23:10 | 34.74548 | -85.08638 | 28077 ft | 418 kts | 323° |
| 2026-05-05 23:10 | 34.78655 | -85.11774 | 28070 ft | 421 kts | 324° |
| 2026-05-05 23:11 | 34.83620 | -85.15575 | 28045 ft | 422 kts | 323° |
| 2026-05-05 23:11 | 34.88570 | -85.19395 | 27947 ft | 420 kts | 323° |
| 2026-05-05 23:12 | 34.91029 | -85.21300 | 27690 ft | 417 kts | 323° |
| 2026-05-05 23:12 | 34.93478 | -85.23201 | 27429 ft | 418 kts | 323° |
| 2026-05-05 23:12 | 34.95940 | -85.25114 | 27173 ft | 421 kts | 323° |
| 2026-05-05 23:12 | 34.98413 | -85.27038 | 26939 ft | 423 kts | 323° |
| 2026-05-05 23:13 | 35.00895 | -85.28968 | 26692 ft | 424 kts | 323° |
| 2026-05-05 23:13 | 35.03382 | -85.30903 | 26437 ft | 424 kts | 323° |
| 2026-05-05 23:13 | 35.05868 | -85.32839 | 26180 ft | 424 kts | 323° |
| 2026-05-05 23:13 | 35.08353 | -85.34774 | 25936 ft | 423 kts | 323° |
| 2026-05-05 23:14 | 35.10819 | -85.36697 | 25355 ft | 418 kts | 323° |
| 2026-05-05 23:14 | 35.13253 | -85.38592 | 24733 ft | 413 kts | 323° |
| 2026-05-05 23:14 | 35.15643 | -85.40484 | 24140 ft | 406 kts | 321° |
| 2026-05-05 23:14 | 35.17741 | -85.42719 | 23707 ft | 394 kts | 311° |
| 2026-05-05 23:15 | 35.19625 | -85.45125 | 23189 ft | 393 kts | 310° |
| 2026-05-05 23:15 | 35.21510 | -85.47604 | 22723 ft | 401 kts | 309° |
| 2026-05-05 23:15 | 35.23417 | -85.50112 | 22274 ft | 404 kts | 310° |
| 2026-05-05 23:15 | 35.25333 | -85.52617 | 21853 ft | 400 kts | 310° |
| 2026-05-05 23:16 | 35.27244 | -85.55088 | 21397 ft | 401 kts | 310° |
| 2026-05-05 23:16 | 35.29167 | -85.57567 | 20991 ft | 401 kts | 310° |
| 2026-05-05 23:16 | 35.31092 | -85.60024 | 20540 ft | 400 kts | 310° |
| 2026-05-05 23:16 | 35.33015 | -85.62475 | 20107 ft | 399 kts | 310° |
| 2026-05-05 23:17 | 35.34934 | -85.64925 | 19680 ft | 398 kts | 310° |
| 2026-05-05 23:17 | 35.36849 | -85.67376 | 19253 ft | 398 kts | 310° |
| 2026-05-05 23:17 | 35.38764 | -85.69829 | 18822 ft | 398 kts | 310° |
| 2026-05-05 23:17 | 35.40677 | -85.72283 | 18384 ft | 398 kts | 311° |
| 2026-05-05 23:18 | 35.42588 | -85.74737 | 17895 ft | 398 kts | 311° |
| 2026-05-05 23:18 | 35.44496 | -85.77188 | 17450 ft | 397 kts | 310° |
| 2026-05-05 23:18 | 35.46396 | -85.79629 | 17040 ft | 394 kts | 310° |
| 2026-05-05 23:18 | 35.48277 | -85.82049 | 16670 ft | 390 kts | 310° |
| 2026-05-05 23:19 | 35.50144 | -85.84456 | 16255 ft | 388 kts | 310° |
| 2026-05-05 23:19 | 35.51987 | -85.86831 | 15822 ft | 379 kts | 310° |
| 2026-05-05 23:19 | 35.53763 | -85.89114 | 15414 ft | 361 kts | 310° |
| 2026-05-05 23:19 | 35.55455 | -85.91294 | 15058 ft | 344 kts | 310° |
| 2026-05-05 23:20 | 35.57038 | -85.93384 | 14897 ft | 326 kts | 309° |
| 2026-05-05 23:20 | 35.58559 | -85.95427 | 14523 ft | 328 kts | 309° |
| 2026-05-05 23:20 | 35.60125 | -85.97542 | 13541 ft | 340 kts | 309° |
| 2026-05-05 23:20 | 35.61687 | -85.99639 | 13310 ft | 321 kts | 309° |
| 2026-05-05 23:21 | 35.63166 | -86.01619 | 12993 ft | 308 kts | 309° |
| 2026-05-05 23:21 | 35.64581 | -86.03514 | 12734 ft | 295 kts | 309° |
| 2026-05-05 23:21 | 35.65955 | -86.05356 | 12475 ft | 289 kts | 309° |
| 2026-05-05 23:21 | 35.67302 | -86.07165 | 12223 ft | 287 kts | 309° |
| 2026-05-05 23:22 | 35.68662 | -86.08994 | 11976 ft | 292 kts | 309° |
| 2026-05-05 23:22 | 35.70041 | -86.10845 | 11745 ft | 295 kts | 308° |
| 2026-05-05 23:22 | 35.71412 | -86.12711 | 11492 ft | 292 kts | 306° |
| 2026-05-05 23:22 | 35.72657 | -86.14679 | 11251 ft | 291 kts | 302° |
| 2026-05-05 23:23 | 35.73842 | -86.16680 | 11093 ft | 288 kts | 302° |
| 2026-05-05 23:23 | 35.75015 | -86.18681 | 10949 ft | 288 kts | 302° |
| 2026-05-05 23:23 | 35.76190 | -86.20678 | 10807 ft | 289 kts | 302° |
| 2026-05-05 23:23 | 35.77373 | -86.22678 | 10671 ft | 289 kts | 302° |
| 2026-05-05 23:24 | 35.78562 | -86.24680 | 10523 ft | 290 kts | 302° |
| 2026-05-05 23:24 | 35.79760 | -86.26691 | 10325 ft | 293 kts | 302° |
| 2026-05-05 23:24 | 35.80969 | -86.28715 | 10138 ft | 291 kts | 302° |
| 2026-05-05 23:24 | 35.82158 | -86.30702 | 10115 ft | 288 kts | 302° |
| 2026-05-05 23:25 | 35.83332 | -86.32666 | 10124 ft | 290 kts | 302° |
| 2026-05-05 23:25 | 35.84530 | -86.34672 | 10105 ft | 291 kts | 302° |
| 2026-05-05 23:25 | 35.85725 | -86.36671 | 10122 ft | 289 kts | 302° |
| 2026-05-05 23:25 | 35.86917 | -86.38669 | 10099 ft | 290 kts | 302° |
| 2026-05-05 23:26 | 35.88110 | -86.40667 | 10096 ft | 289 kts | 302° |
| 2026-05-05 23:26 | 35.89301 | -86.42664 | 10107 ft | 289 kts | 302° |
| 2026-05-05 23:26 | 35.90492 | -86.44660 | 10096 ft | 289 kts | 302° |
| 2026-05-05 23:26 | 35.91682 | -86.46657 | 10103 ft | 289 kts | 302° |
| 2026-05-05 23:27 | 35.92874 | -86.48658 | 10107 ft | 289 kts | 302° |
| 2026-05-05 23:27 | 35.94064 | -86.50656 | 10110 ft | 289 kts | 302° |
| 2026-05-05 23:27 | 35.95258 | -86.52664 | 10017 ft | 288 kts | 302° |
| 2026-05-05 23:27 | 35.96405 | -86.54586 | 10069 ft | 270 kts | 302° |
| 2026-05-05 23:28 | 35.97498 | -86.56422 | 9890 ft | 263 kts | 302° |
| 2026-05-05 23:28 | 35.98594 | -86.58229 | 9710 ft | 262 kts | 307° |
| 2026-05-05 23:28 | 36.00102 | -86.59525 | 9438 ft | 273 kts | 339° |
| 2026-05-05 23:28 | 36.01993 | -86.59675 | 9282 ft | 278 kts | 8° |
| 2026-05-05 23:29 | 36.03864 | -86.59002 | 9162 ft | 283 kts | 17° |
| 2026-05-05 23:29 | 36.05745 | -86.58212 | 8932 ft | 286 kts | 17° |
| 2026-05-05 23:29 | 36.07606 | -86.57440 | 8708 ft | 275 kts | 16° |
| 2026-05-05 23:29 | 36.09385 | -86.56714 | 8466 ft | 262 kts | 16° |
| 2026-05-05 23:30 | 36.11097 | -86.56050 | 8210 ft | 254 kts | 13° |
| 2026-05-05 23:30 | 36.12791 | -86.55485 | 7987 ft | 251 kts | 12° |
| 2026-05-05 23:30 | 36.14480 | -86.54947 | 7761 ft | 251 kts | 12° |
| 2026-05-05 23:30 | 36.16177 | -86.54406 | 7540 ft | 254 kts | 12° |
| 2026-05-05 23:31 | 36.17897 | -86.53860 | 7307 ft | 256 kts | 12° |
| 2026-05-05 23:31 | 36.19617 | -86.53311 | 7075 ft | 255 kts | 12° |
| 2026-05-05 23:31 | 36.21326 | -86.52753 | 6833 ft | 252 kts | 12° |
| 2026-05-05 23:31 | 36.23012 | -86.52227 | 6574 ft | 245 kts | 11° |
| 2026-05-05 23:32 | 36.24623 | -86.51741 | 6338 ft | 233 kts | 11° |
| 2026-05-05 23:32 | 36.26160 | -86.51273 | 6069 ft | 222 kts | 9° |
| 2026-05-05 23:32 | 36.27641 | -86.50856 | 5802 ft | 215 kts | 9° |
| 2026-05-05 23:32 | 36.29070 | -86.50459 | 5541 ft | 212 kts | 10° |
| 2026-05-05 23:33 | 36.30503 | -86.50021 | 5309 ft | 212 kts | 9° |
| 2026-05-05 23:33 | 36.31949 | -86.49629 | 5060 ft | 213 kts | 8° |
| 2026-05-05 23:33 | 36.33386 | -86.49200 | 4837 ft | 212 kts | 11° |
| 2026-05-05 23:33 | 36.34821 | -86.48760 | 4587 ft | 213 kts | 9° |
| 2026-05-05 23:34 | 36.36260 | -86.48338 | 4309 ft | 211 kts | 9° |
| 2026-05-05 23:34 | 36.37650 | -86.48287 | 4125 ft | 189 kts | 334° |
| 2026-05-05 23:34 | 36.38601 | -86.49168 | 4120 ft | 166 kts | 289° |
| 2026-05-05 23:34 | 36.38779 | -86.50544 | 4137 ft | 163 kts | 256° |
| 2026-05-05 23:35 | 36.38366 | -86.51813 | 4110 ft | 159 kts | 226° |
| 2026-05-05 23:35 | 36.37611 | -86.52801 | 4117 ft | 159 kts | 225° |
| 2026-05-05 23:35 | 36.36840 | -86.53802 | 4079 ft | 159 kts | 226° |
| 2026-05-05 23:35 | 36.36080 | -86.54793 | 4112 ft | 160 kts | 226° |
| 2026-05-05 23:36 | 36.35312 | -86.55796 | 4070 ft | 160 kts | 226° |
| 2026-05-05 23:36 | 36.34535 | -86.56800 | 3921 ft | 161 kts | 226° |
| 2026-05-05 23:36 | 36.33664 | -86.57635 | 3730 ft | 159 kts | 204° |
| 2026-05-05 23:36 | 36.32635 | -86.58085 | 3642 ft | 158 kts | 204° |
| 2026-05-05 23:37 | 36.31589 | -86.58555 | 3501 ft | 160 kts | 201° |
| 2026-05-05 23:37 | 36.30530 | -86.59003 | 3376 ft | 161 kts | 203° |
| 2026-05-05 23:37 | 36.29477 | -86.59444 | 3236 ft | 159 kts | 202° |
| 2026-05-05 23:37 | 36.28437 | -86.59869 | 3120 ft | 158 kts | 201° |
| 2026-05-05 23:38 | 36.27380 | -86.60292 | 3098 ft | 159 kts | 201° |
| 2026-05-05 23:38 | 36.26333 | -86.60713 | 3101 ft | 158 kts | 201° |
| 2026-05-05 23:38 | 36.25296 | -86.61133 | 2990 ft | 157 kts | 200° |
| 2026-05-05 23:38 | 36.24252 | -86.61549 | 2784 ft | 158 kts | 201° |
| 2026-05-05 23:39 | 36.23200 | -86.61973 | 2588 ft | 160 kts | 201° |
| 2026-05-05 23:39 | 36.22151 | -86.62396 | 2392 ft | 157 kts | 200° |
| 2026-05-05 23:39 | 36.21124 | -86.62803 | 2164 ft | 150 kts | 199° |
| 2026-05-05 23:39 | 36.20186 | -86.63184 | 1998 ft | 139 kts | 199° |
| 2026-05-05 23:40 | 36.19269 | -86.63552 | 1796 ft | 140 kts | 198° |
| 2026-05-05 23:40 | 36.18336 | -86.63930 | 1582 ft | 141 kts | 198° |
| 2026-05-05 23:40 | 36.17417 | -86.64304 | 1386 ft | 139 kts | 197° |
| 2026-05-05 23:40 | 36.16497 | -86.64667 | 1245 ft | 139 kts | 198° |
| 2026-05-05 23:41 | 36.15580 | -86.65036 | 1052 ft | 139 kts | 196° |
| 2026-05-05 23:41 | 36.14625 | -86.65420 | 872 ft | 144 kts | 195° |
| 2026-05-05 23:41 | 36.13675 | -86.65797 | 650 ft | 141 kts | 198° |
| 2026-05-05 23:41 | 36.12755 | -86.66176 | 569 ft | 131 kts | 198° |
| 2026-05-05 23:42 | 36.12182 | -86.66409 | 571 ft | 58 kts | 197° |
| 2026-05-05 23:42 | 36.11885 | -86.66530 | 579 ft | 30 kts | 210° |
| 2026-05-05 23:42 | 36.11855 | -86.66638 | 579 ft | 10 kts | 306° |
| 2026-05-05 23:42 | 36.11923 | -86.66649 | 578 ft | 12 kts | 11° |
| 2026-05-05 23:43 | 36.12024 | -86.66610 | 578 ft | 20 kts | 18° |
| 2026-05-05 23:43 | 36.12187 | -86.66545 | 568 ft | 29 kts | 18° |
| 2026-05-05 23:43 | 36.12305 | -86.66624 | 568 ft | 22 kts | 294° |
| 2026-05-05 23:43 | 36.12350 | -86.66800 | 576 ft | 21 kts | 290° |
| 2026-05-05 23:44 | 36.12438 | -86.66939 | 572 ft | 20 kts | 326° |
| 2026-05-05 23:44 | 36.12566 | -86.66896 | 570 ft | 20 kts | 30° |
| 2026-05-05 23:44 | 36.12686 | -86.66811 | 572 ft | 20 kts | 30° |
| 2026-05-05 23:44 | 36.12751 | -86.66832 | 568 ft | 5 kts | 306° |
| 2026-05-05 23:45 | 36.12769 | -86.66858 | 568 ft | 0 kts | 310° |